Startpagina
METAR-TAF:

METAR-TAF

Vliegvelden :

Luchthaven van Praag

Praag, Tsjechië

breedte: 50-06N, lengte: 014-15E, hoogte: 365 m

Actueel weer

Dit bericht is 23 minuten geleden gemaakt, om 00:00 UTC
Wind 4 kt uit het noordwesten, variërend tussen het westen en het noordnoordwesten
Temperatuur 11°C
Vochtigheid 76%
Druk 1020 hPa
Zicht 10 km of meer
geen wolken onder 1500 m en geen cumulonimbus

METAR: LKPR 010000Z 31004KT 270V340 CAVOK 11/07 Q1020 NOSIG

Tijdstip: 02:23 (00:23 UTC)

Verwachting

Dit bericht is 1 uur en het 23 minuten geleden gemaakt, om 23:00 UTC
Verwachting geldig van 01 om 00 UTC tot 02 om 06 UTC
Wind 7 kt uit het noordnoordwesten
Zicht 10 km of meer
geen wolken onder 1500 m en geen cumulonimbus
Tijdelijke
van 01 om 10 UTC tot 01 om 17 UTC
Wind 14 kt uit het noorden
Zicht 10 km of meer
Verspreide wolken op 4000 ft

TAF: LKPR 312300Z 0100/0206 33007KT CAVOK TEMPO 0110/0117 01014KT 9999 SCT040

Waarnemingen en weersverwachtingen van meer dan 4000 vliegvelden (METAR en TAF).

De beschikbare stations zijn de gele en rode punten op de kaart.

Ga met uw muis naar het station om de naam te zien.

Klik dan om waarnemingen en weersverwachtingen te zien.

kaart wijzigen: klik op de groene knoppen met een zwart kruis om in te zoomen, op de groene knop met een streepje om uit te zoomen of op de groene pijlen voor aangrenzende kaarten.


METAR-TAF: